createdAt,value
2018-01-02T00:01:19.258Z,7.35
2018-01-02T00:03:47.021Z,7.46
2018-01-02T00:06:14.581Z,7.55
2018-01-02T00:08:42.626Z,7.40
2018-01-02T00:11:10.282Z,7.30
2018-01-02T00:13:37.974Z,7.35
2018-01-02T00:16:06.555Z,7.44
2018-01-02T00:18:34.102Z,7.35
2018-01-02T00:21:01.677Z,7.33
2018-01-02T00:23:30.029Z,7.61
2018-01-02T00:25:57.613Z,7.36
2018-01-02T00:28:25.171Z,7.48
2018-01-02T00:30:53.140Z,7.60
2018-01-02T00:33:20.699Z,7.62
2018-01-02T00:35:48.257Z,7.79
2018-01-02T00:38:16.027Z,7.57
2018-01-02T00:40:43.566Z,7.50
2018-01-02T00:43:11.185Z,7.57
2018-01-02T00:45:38.802Z,7.74
2018-01-02T00:48:06.360Z,7.70
2018-01-02T00:50:33.920Z,7.50
2018-01-02T00:53:01.491Z,7.28
2018-01-02T00:55:29.041Z,7.49
2018-01-02T00:57:56.597Z,7.26
2018-01-02T01:00:24.194Z,7.24
2018-01-02T01:02:51.877Z,7.38
2018-01-02T01:05:19.409Z,7.70
2018-01-02T01:07:47.756Z,7.43
2018-01-02T01:10:15.357Z,7.56
2018-01-02T01:12:43.896Z,7.69
2018-01-02T01:15:11.685Z,7.65
2018-01-02T01:17:39.266Z,7.73
2018-01-02T01:20:07.290Z,7.67
2018-01-02T01:22:35.053Z,7.75
2018-01-02T01:25:02.633Z,7.71
2018-01-02T01:27:30.166Z,7.36
2018-01-02T01:29:58.243Z,7.36
2018-01-02T01:32:25.803Z,7.45
2018-01-02T01:34:53.332Z,7.26
2018-01-02T01:37:20.998Z,7.35
2018-01-02T01:39:48.525Z,7.27
2018-01-02T01:42:16.063Z,7.56
2018-01-02T01:44:43.644Z,7.38
2018-01-02T01:47:11.192Z,7.23
2018-01-02T01:49:38.730Z,7.31
2018-01-02T01:52:06.581Z,7.35
2018-01-02T01:54:34.552Z,7.55
2018-01-02T01:57:02.111Z,7.42
2018-01-02T01:59:29.697Z,7.65
2018-01-02T02:01:57.234Z,7.56
2018-01-02T02:04:24.774Z,7.51
2018-01-02T02:06:52.446Z,7.61
2018-01-02T02:09:20.012Z,7.70
2018-01-02T02:11:47.553Z,7.53
2018-01-02T02:14:15.283Z,7.69
2018-01-02T02:16:42.973Z,7.85
2018-01-02T02:19:10.554Z,7.78
2018-01-02T02:21:38.258Z,7.54
2018-01-02T02:24:05.802Z,7.43
2018-01-02T02:26:33.331Z,7.58
2018-01-02T02:29:02.015Z,7.32
2018-01-02T02:31:29.561Z,7.59
2018-01-02T02:33:57.238Z,7.26
2018-01-02T02:36:25.218Z,7.43
2018-01-02T02:38:52.766Z,7.48
2018-01-02T02:41:20.326Z,7.45
2018-01-02T02:43:48.145Z,7.20
2018-01-02T02:46:15.681Z,7.34
2018-01-02T02:48:43.214Z,7.11
2018-01-02T02:51:10.776Z,7.33
2018-01-02T02:53:38.306Z,7.23
2018-01-02T02:56:05.838Z,7.23
2018-01-02T02:58:33.545Z,7.42
2018-01-02T03:01:01.090Z,7.67
2018-01-02T03:03:28.664Z,7.42
2018-01-02T03:05:56.529Z,7.67
2018-01-02T03:08:24.061Z,7.39
2018-01-02T03:10:51.590Z,7.92
2018-01-02T03:13:19.309Z,7.64
2018-01-02T03:15:46.869Z,7.57
2018-01-02T03:18:14.414Z,7.63
2018-01-02T03:20:42.086Z,7.48
2018-01-02T03:23:09.649Z,7.62
2018-01-02T03:25:37.207Z,7.83
2018-01-02T03:28:04.918Z,7.71
2018-01-02T03:30:32.474Z,7.74
2018-01-02T03:33:00.014Z,8.15
2018-01-02T03:35:27.855Z,7.88
2018-01-02T03:37:55.393Z,7.36
2018-01-02T03:40:22.972Z,7.71
2018-01-02T03:42:50.741Z,7.40
2018-01-02T03:45:18.294Z,7.68
2018-01-02T03:47:45.859Z,7.55
2018-01-02T03:50:13.649Z,7.91
2018-01-02T03:52:41.182Z,8.08
2018-01-02T03:55:08.722Z,7.60
2018-01-02T03:57:36.293Z,7.58
2018-01-02T04:00:03.854Z,7.58
2018-01-02T04:02:31.413Z,8.04
2018-01-02T04:04:59.176Z,8.13
2018-01-02T04:07:26.735Z,7.76
2018-01-02T04:09:54.276Z,7.65
2018-01-02T04:12:21.853Z,7.29
2018-01-02T04:14:49.413Z,6.83
2018-01-02T04:17:17.025Z,6.61
2018-01-02T04:19:44.940Z,6.88
2018-01-02T04:22:12.472Z,6.90
2018-01-02T04:24:40.009Z,6.76
2018-01-02T04:27:07.721Z,7.15
2018-01-02T04:29:35.269Z,6.98
2018-01-02T04:32:02.838Z,6.81
2018-01-02T04:34:30.494Z,6.59
2018-01-02T04:36:58.058Z,6.91
2018-01-02T04:39:25.605Z,6.95
2018-01-02T04:41:53.483Z,6.69
2018-01-02T04:44:21.043Z,6.72
2018-01-02T04:46:48.593Z,6.53
2018-01-02T04:49:16.155Z,6.63
2018-01-02T04:51:43.719Z,6.91
2018-01-02T04:54:11.253Z,6.63
2018-01-02T04:56:38.936Z,6.65
2018-01-02T04:59:06.500Z,6.44
2018-01-02T05:01:34.050Z,6.34
2018-01-02T05:04:01.929Z,7.07
2018-01-02T05:06:29.479Z,6.90
2018-01-02T05:08:57.101Z,6.49
2018-01-02T05:11:25.013Z,6.68
2018-01-02T05:13:52.576Z,6.76
2018-01-02T05:16:20.133Z,7.15
2018-01-02T05:18:47.813Z,6.75
2018-01-02T05:21:15.341Z,6.75
2018-01-02T05:23:42.878Z,6.94
2018-01-02T05:26:10.449Z,6.48
2018-01-02T05:28:38.031Z,6.23
2018-01-02T05:31:05.575Z,6.37
2018-01-02T05:33:33.154Z,6.28
2018-01-02T05:36:00.691Z,6.51
2018-01-02T05:38:28.264Z,6.73
2018-01-02T05:40:56.046Z,6.80
2018-01-02T05:43:23.576Z,6.71
2018-01-02T05:45:51.146Z,6.61
2018-01-02T05:48:18.702Z,6.74
2018-01-02T05:50:46.368Z,6.88
2018-01-02T05:53:13.928Z,6.87
2018-01-02T05:55:41.495Z,6.59
2018-01-02T05:58:09.055Z,6.65
2018-01-02T06:00:36.601Z,6.82
2018-01-02T06:03:04.366Z,6.39
2018-01-02T06:05:31.926Z,6.30
2018-01-02T06:07:59.473Z,6.24
2018-01-02T06:10:27.249Z,6.43
2018-01-02T06:12:54.807Z,6.62
2018-01-02T06:15:22.370Z,6.42
2018-01-02T06:17:49.933Z,6.56
2018-01-02T06:20:17.474Z,6.61
2018-01-02T06:22:45.044Z,6.69
2018-01-02T06:25:12.626Z,6.52
2018-01-02T06:27:40.187Z,6.69
2018-01-02T06:30:07.722Z,6.71
2018-01-02T06:32:35.485Z,6.53
2018-01-02T06:35:03.029Z,6.46
2018-01-02T06:37:30.604Z,6.65
2018-01-02T06:39:58.369Z,6.48
2018-01-02T06:42:25.926Z,6.44
2018-01-02T06:44:53.485Z,6.57
2018-01-02T06:47:21.352Z,6.58
2018-01-02T06:49:48.910Z,6.56
2018-01-02T06:52:16.470Z,6.42
2018-01-02T06:54:44.069Z,6.49
2018-01-02T06:57:11.613Z,6.44
2018-01-02T06:59:39.144Z,6.35
2018-01-02T07:02:07.012Z,6.28
2018-01-02T07:04:34.675Z,6.20
2018-01-02T07:07:02.221Z,6.46
2018-01-02T07:09:29.998Z,6.30
2018-01-02T07:11:57.545Z,6.23
2018-01-02T07:14:25.117Z,5.70
2018-01-02T07:16:52.880Z,5.88
2018-01-02T07:19:20.438Z,5.70
2018-01-02T07:21:47.997Z,5.89
2018-01-02T07:24:15.579Z,5.88
2018-01-02T07:26:43.125Z,5.94
2018-01-02T07:29:10.717Z,5.94
2018-01-02T07:31:38.542Z,6.35
2018-01-02T07:34:06.100Z,6.37
2018-01-02T07:36:33.658Z,6.58
2018-01-02T07:39:01.229Z,6.72
2018-01-02T07:41:28.764Z,6.69
2018-01-02T07:43:56.337Z,6.63
2018-01-02T07:46:23.912Z,6.66
2018-01-02T07:48:51.454Z,6.88
2018-01-02T07:51:19.013Z,6.73
2018-01-02T07:53:46.606Z,6.98
2018-01-02T07:56:14.137Z,6.90
2018-01-02T07:58:41.691Z,6.79
2018-01-02T08:01:09.290Z,6.98
2018-01-02T08:03:37.319Z,7.00
2018-01-02T08:06:04.879Z,7.23
2018-01-02T08:08:32.448Z,7.40
2018-01-02T08:10:59.997Z,7.43
2018-01-02T08:13:27.556Z,7.01
2018-01-02T08:15:55.337Z,7.12
2018-01-02T08:18:22.880Z,6.90
2018-01-02T08:20:50.426Z,7.13
2018-01-02T08:23:17.999Z,7.25
2018-01-02T08:25:45.556Z,7.22
2018-01-02T08:28:13.115Z,7.36
2018-01-02T08:30:41.021Z,7.27
2018-01-02T08:33:09.461Z,7.42
2018-01-02T08:35:37.942Z,7.55
2018-01-02T08:38:05.516Z,7.53
2018-01-02T08:40:33.046Z,7.39
2018-01-02T08:43:00.600Z,7.75
2018-01-02T08:45:28.386Z,7.74
2018-01-02T08:47:55.930Z,7.86
2018-01-02T08:50:23.504Z,8.13
2018-01-02T08:52:52.187Z,8.00
2018-01-02T08:55:19.734Z,8.26
2018-01-02T08:57:47.281Z,8.22
2018-01-02T09:00:14.858Z,8.26
2018-01-02T09:02:42.423Z,8.29
2018-01-02T09:05:09.982Z,8.32
2018-01-02T09:07:37.549Z,8.57
2018-01-02T09:10:05.101Z,8.52
2018-01-02T09:12:38.450Z,8.71
2018-01-02T09:15:05.990Z,8.97
2018-01-02T09:17:33.528Z,8.57
2018-01-02T09:20:01.482Z,8.75
2018-01-02T09:22:29.010Z,8.81
2018-01-02T09:24:56.601Z,8.53
2018-01-02T09:27:25.166Z,8.63
2018-01-02T09:29:53.662Z,8.51
2018-01-02T09:32:21.210Z,8.49
2018-01-02T09:34:48.986Z,8.57
2018-01-02T09:37:16.531Z,8.58
2018-01-02T09:39:44.513Z,8.76
2018-01-02T09:42:12.081Z,8.37
2018-01-02T09:44:39.633Z,8.74
2018-01-02T09:47:07.192Z,9.08
2018-01-02T09:49:34.955Z,8.86
2018-01-02T09:52:02.533Z,8.73
2018-01-02T09:54:30.125Z,8.20
2018-01-02T09:56:58.962Z,8.06
2018-01-02T09:59:26.522Z,8.30
2018-01-02T10:01:54.070Z,9.24
2018-01-02T10:04:21.745Z,13.00
2018-01-02T10:06:49.334Z,14.65
2018-01-02T10:09:16.886Z,16.06
2018-01-02T10:11:44.728Z,16.56
2018-01-02T10:14:12.278Z,17.30
2018-01-02T10:16:39.845Z,18.13
2018-01-02T10:19:07.609Z,18.50
2018-01-02T10:21:35.170Z,19.26
2018-01-02T10:24:02.761Z,19.20
2018-01-02T10:26:30.493Z,19.59
2018-01-02T10:28:58.050Z,19.79
2018-01-02T10:31:25.598Z,18.55
2018-01-02T10:33:53.168Z,19.51
2018-01-02T10:36:20.717Z,20.23
2018-01-02T10:38:48.265Z,20.23
2018-01-02T10:41:15.834Z,21.16
2018-01-02T10:43:43.410Z,20.66
2018-01-02T10:46:10.961Z,21.14
2018-01-02T10:48:38.729Z,19.36
2018-01-02T10:51:06.287Z,19.40
2018-01-02T10:53:33.833Z,19.72
2018-01-02T10:56:01.625Z,20.46
2018-01-02T10:58:29.162Z,20.12
2018-01-02T11:01:01.644Z,21.20
2018-01-02T11:03:29.229Z,22.61
2018-01-02T11:05:56.768Z,22.57
2018-01-02T11:08:24.525Z,22.50
2018-01-02T11:10:58.022Z,20.48
2018-01-02T11:13:31.417Z,17.20
2018-01-02T11:15:58.962Z,16.91
2018-01-02T11:18:26.537Z,19.04
2018-01-02T11:20:54.109Z,21.03
2018-01-02T11:23:21.757Z,20.48
2018-01-02T11:25:49.313Z,21.65
2018-01-02T11:28:17.084Z,23.10
2018-01-02T11:30:44.639Z,24.31
2018-01-02T11:33:12.198Z,21.84
2018-01-02T11:35:39.860Z,17.92
2018-01-02T11:38:07.405Z,15.03
2018-01-02T11:40:34.965Z,12.82
2018-01-02T11:43:02.742Z,12.08
2018-01-02T11:45:30.302Z,11.86
2018-01-02T11:47:57.861Z,12.75
2018-01-02T11:50:25.450Z,14.18
2018-01-02T11:52:53.143Z,16.79
2018-01-02T11:55:20.744Z,19.34
2018-01-02T11:57:48.329Z,21.97
2018-01-02T12:00:16.060Z,22.17
2018-01-02T12:02:43.646Z,21.81
2018-01-02T12:05:11.226Z,22.98
2018-01-02T12:07:38.795Z,21.97
2018-01-02T12:10:07.326Z,22.83
2018-01-02T12:12:34.910Z,23.68
2018-01-02T12:15:02.458Z,20.22
2018-01-02T12:17:30.208Z,17.72
2018-01-02T12:19:58.454Z,15.31
2018-01-02T12:22:26.964Z,13.98
2018-01-02T12:24:54.510Z,12.72
2018-01-02T12:27:22.085Z,12.30
2018-01-02T12:29:49.650Z,11.25
2018-01-02T12:32:17.197Z,11.09
2018-01-02T12:34:45.272Z,10.79
2018-01-02T12:37:12.833Z,10.64
2018-01-02T12:39:40.390Z,10.31
2018-01-02T12:42:08.164Z,10.27
2018-01-02T12:44:35.714Z,9.90
2018-01-02T12:47:03.271Z,9.65
2018-01-02T12:49:30.942Z,9.61
2018-01-02T12:51:58.595Z,9.81
2018-01-02T12:54:26.234Z,9.86
2018-01-02T12:56:53.858Z,9.98
2018-01-02T12:59:21.394Z,9.69
2018-01-02T13:01:49.032Z,9.62
2018-01-02T13:04:17.115Z,9.76
2018-01-02T13:06:44.768Z,9.72
2018-01-02T13:09:12.558Z,9.35
2018-01-02T13:11:40.709Z,9.28
2018-01-02T13:14:08.383Z,8.74
2018-01-02T13:16:35.925Z,8.93
2018-01-02T13:19:03.534Z,8.52
2018-01-02T13:21:31.247Z,8.34
2018-01-02T13:23:58.863Z,8.67
2018-01-02T13:26:26.670Z,9.06
2018-01-02T13:28:54.202Z,9.35
2018-01-02T13:31:21.741Z,9.68
2018-01-02T13:33:49.353Z,9.86
2018-01-02T13:36:16.910Z,10.19
2018-01-02T13:38:44.483Z,10.37
2018-01-02T13:41:12.352Z,9.91
2018-01-02T13:43:39.895Z,10.05
2018-01-02T13:46:08.578Z,9.57
2018-01-02T13:48:36.174Z,8.90
2018-01-02T13:51:03.705Z,9.17
2018-01-02T13:53:31.412Z,9.20
2018-01-02T13:55:59.057Z,9.27
2018-01-02T13:58:26.595Z,9.49
2018-01-02T14:00:54.129Z,9.52
2018-01-02T14:03:22.009Z,9.41
2018-01-02T14:05:49.594Z,9.16
2018-01-02T14:08:17.327Z,8.76
2018-01-02T14:10:45.094Z,8.93
2018-01-02T14:13:12.856Z,9.27
2018-01-02T14:15:40.416Z,9.67
2018-01-02T14:18:08.167Z,9.21
2018-01-02T14:20:36.061Z,8.83
2018-01-02T14:23:04.032Z,9.28
2018-01-02T14:25:31.750Z,8.84
2018-01-02T14:28:00.260Z,9.10
2018-01-02T14:30:27.919Z,8.79
2018-01-02T14:32:55.887Z,8.82
2018-01-02T14:35:23.448Z,8.64
2018-01-02T14:37:51.006Z,8.78
2018-01-02T14:40:18.863Z,8.84
2018-01-02T14:42:46.607Z,8.68
2018-01-02T14:45:14.231Z,8.84
2018-01-02T14:47:42.269Z,9.10
2018-01-02T14:50:09.944Z,8.71
2018-01-02T14:52:37.617Z,8.74
2018-01-02T14:55:05.527Z,8.56
2018-01-02T14:57:33.221Z,8.41
2018-01-02T15:00:00.799Z,8.54
2018-01-02T15:02:28.478Z,8.06
2018-01-02T15:04:56.084Z,8.31
2018-01-02T15:07:23.669Z,8.33
2018-01-02T15:09:51.542Z,8.37
2018-01-02T15:12:19.299Z,8.01
2018-01-02T15:14:46.878Z,8.20
2018-01-02T15:17:14.831Z,7.95
2018-01-02T15:19:42.483Z,8.03
2018-01-02T15:22:10.346Z,7.96
2018-01-02T15:24:38.111Z,7.84
2018-01-02T15:27:05.919Z,7.99
2018-01-02T15:29:33.489Z,7.81
2018-01-02T15:32:01.506Z,7.88
2018-01-02T15:34:29.066Z,7.66
2018-01-02T15:36:56.829Z,7.65
2018-01-02T15:39:24.433Z,7.55
2018-01-02T15:41:52.282Z,7.66
2018-01-02T15:44:19.856Z,7.40
2018-01-02T15:46:47.449Z,7.54
2018-01-02T15:49:15.036Z,7.44
2018-01-02T15:51:42.621Z,7.50
2018-01-02T15:54:10.475Z,7.50
2018-01-02T15:56:38.050Z,7.56
2018-01-02T15:59:05.590Z,7.51
2018-01-02T16:01:33.309Z,7.32
2018-01-02T16:04:00.846Z,7.17
2018-01-02T16:06:28.662Z,7.39
2018-01-02T16:08:57.211Z,7.25
2018-01-02T16:11:24.793Z,7.14
2018-01-02T16:13:52.365Z,7.35
2018-01-02T16:16:20.166Z,7.36
2018-01-02T16:18:47.791Z,7.38
2018-01-02T16:21:15.339Z,7.23
2018-01-02T16:23:43.112Z,7.13
2018-01-02T16:26:10.876Z,7.11
2018-01-02T16:28:38.433Z,6.83
2018-01-02T16:31:06.608Z,7.09
2018-01-02T16:33:35.191Z,6.95
2018-01-02T16:36:02.754Z,6.90
2018-01-02T16:38:30.633Z,6.97
2018-01-02T16:40:58.586Z,6.71
2018-01-02T16:43:26.146Z,6.67
2018-01-02T16:45:54.524Z,6.59
2018-01-02T16:48:22.086Z,6.76
2018-01-02T16:50:49.643Z,6.70
2018-01-02T16:53:17.241Z,6.97
2018-01-02T16:55:44.966Z,7.01
2018-01-02T16:58:12.514Z,6.83
2018-01-02T17:00:40.551Z,7.00
2018-01-02T17:03:08.258Z,7.24
2018-01-02T17:05:35.823Z,7.33
2018-01-02T17:08:03.380Z,7.24
2018-01-02T17:10:30.966Z,7.10
2018-01-02T17:12:58.698Z,7.19
2018-01-02T17:15:26.669Z,7.27
2018-01-02T17:17:54.245Z,7.17
2018-01-02T17:20:22.093Z,7.30
2018-01-02T17:22:50.145Z,7.16
2018-01-02T17:25:17.891Z,7.24
2018-01-02T17:27:46.004Z,7.32
2018-01-02T17:30:14.025Z,7.22
2018-01-02T17:32:41.838Z,6.83
2018-01-02T17:35:09.702Z,7.00
2018-01-02T17:37:37.362Z,7.02
2018-01-02T17:40:04.970Z,7.32
2018-01-02T17:42:32.537Z,7.25
2018-01-02T17:45:00.143Z,7.13
2018-01-02T17:47:27.756Z,7.41
2018-01-02T17:49:55.426Z,7.13
2018-01-02T17:52:24.089Z,7.27
2018-01-02T17:54:51.775Z,7.26
2018-01-02T17:57:19.473Z,7.28
2018-01-02T17:59:47.342Z,7.22
2018-01-02T18:02:15.000Z,7.20
2018-01-02T18:04:42.588Z,7.24
2018-01-02T18:07:10.328Z,7.47
2018-01-02T18:09:38.069Z,7.64
2018-01-02T18:12:05.650Z,7.43
2018-01-02T18:14:33.409Z,7.75
2018-01-02T18:17:00.972Z,7.85
2018-01-02T18:19:28.569Z,7.86
2018-01-02T18:21:56.192Z,7.70
2018-01-02T18:24:23.743Z,7.84
2018-01-02T18:26:51.330Z,7.93
2018-01-02T18:29:19.280Z,8.04
2018-01-02T18:31:46.940Z,7.44
2018-01-02T18:34:14.704Z,7.69
2018-01-02T18:36:42.670Z,7.63
2018-01-02T18:39:10.222Z,7.57
2018-01-02T18:41:37.832Z,7.90
2018-01-02T18:44:05.555Z,7.90
2018-01-02T18:46:33.217Z,7.94
2018-01-02T18:49:00.802Z,8.15
2018-01-02T18:51:28.458Z,7.95
2018-01-02T18:53:56.011Z,7.99
2018-01-02T18:56:23.658Z,8.10
2018-01-02T18:58:51.524Z,7.97
2018-01-02T19:01:19.111Z,7.80
2018-01-02T19:03:46.773Z,8.05
2018-01-02T19:06:14.672Z,7.84
2018-01-02T19:08:42.478Z,7.59
2018-01-02T19:11:10.248Z,7.69
2018-01-02T19:13:38.209Z,7.76
2018-01-02T19:16:06.739Z,7.52
2018-01-02T19:18:34.631Z,7.84
2018-01-02T19:21:02.528Z,7.67
2018-01-02T19:23:30.339Z,7.65
2018-01-02T19:25:58.230Z,7.33
2018-01-02T19:28:26.341Z,7.22
2018-01-02T19:30:54.111Z,7.33
2018-01-02T19:33:21.828Z,7.57
2018-01-02T19:35:51.157Z,7.47
2018-01-02T19:38:19.751Z,7.41
2018-01-02T19:40:47.812Z,7.37
2018-01-02T19:43:15.910Z,7.39
2018-01-02T19:45:43.736Z,7.26
2018-01-02T19:48:11.532Z,7.35
2018-01-02T19:50:39.506Z,7.44
2018-01-02T19:53:07.248Z,7.47
2018-01-02T19:55:34.909Z,7.31
2018-01-02T19:58:03.388Z,7.46
2018-01-02T20:00:31.236Z,7.54
2018-01-02T20:02:59.942Z,7.34
2018-01-02T20:05:27.703Z,7.42
2018-01-02T20:07:55.468Z,7.39
2018-01-02T20:10:23.390Z,7.62
2018-01-02T20:12:51.814Z,7.59
2018-01-02T20:15:19.579Z,7.74
2018-01-02T20:17:47.219Z,7.93
2018-01-02T20:20:15.728Z,8.04
2018-01-02T20:22:43.486Z,7.86
2018-01-02T20:25:11.327Z,7.62
2018-01-02T20:27:40.452Z,7.67
2018-01-02T20:30:08.313Z,7.80
2018-01-02T20:32:36.951Z,7.73
2018-01-02T20:35:05.071Z,7.89
2018-01-02T20:37:32.937Z,7.76
2018-01-02T20:40:00.721Z,7.84
2018-01-02T20:42:28.843Z,7.73
2018-01-02T20:44:56.710Z,7.93
2018-01-02T20:47:24.605Z,8.22
2018-01-02T20:49:52.489Z,8.18
2018-01-02T20:52:20.045Z,8.21
2018-01-02T20:54:48.087Z,8.18
2018-01-02T20:57:16.126Z,8.34
2018-01-02T20:59:44.090Z,8.16
2018-01-02T21:02:12.193Z,8.15
2018-01-02T21:04:40.285Z,8.11
2018-01-02T21:07:08.064Z,8.10
2018-01-02T21:09:35.819Z,8.20
2018-01-02T21:12:03.602Z,8.19
2018-01-02T21:14:31.544Z,7.79
2018-01-02T21:16:59.412Z,7.87
2018-01-02T21:19:27.181Z,7.71
2018-01-02T21:21:54.925Z,8.03
2018-01-02T21:24:22.624Z,7.79
2018-01-02T21:26:50.469Z,7.85
2018-01-02T21:29:19.169Z,8.12
2018-01-02T21:31:47.826Z,8.18
2018-01-02T21:34:16.078Z,7.54
2018-01-02T21:36:44.056Z,7.99
2018-01-02T21:39:11.850Z,8.19
2018-01-02T21:41:39.816Z,8.12
2018-01-02T21:44:07.578Z,7.95
2018-01-02T21:46:35.653Z,7.91
2018-01-02T21:49:03.664Z,7.97
2018-01-02T21:51:31.519Z,7.95
2018-01-02T21:53:59.863Z,7.87
2018-01-02T21:56:28.857Z,7.75
2018-01-02T21:58:57.266Z,7.76
2018-01-02T22:01:25.222Z,8.04
2018-01-02T22:03:53.388Z,7.84
2018-01-02T22:06:21.254Z,7.91
2018-01-02T22:08:49.524Z,7.91
2018-01-02T22:11:17.514Z,7.89
2018-01-02T22:13:45.971Z,8.00
2018-01-02T22:16:13.858Z,8.41
2018-01-02T22:18:42.064Z,7.91
2018-01-02T22:21:09.742Z,8.02
2018-01-02T22:23:37.498Z,8.08
2018-01-02T22:26:06.738Z,8.07
2018-01-02T22:28:35.191Z,7.91
2018-01-02T22:31:02.878Z,7.79
2018-01-02T22:33:30.561Z,7.77
2018-01-02T22:35:58.211Z,7.97
2018-01-02T22:38:26.732Z,8.23
2018-01-02T22:40:54.551Z,7.84
2018-01-02T22:43:22.105Z,7.79
2018-01-02T22:45:49.844Z,7.91
2018-01-02T22:48:17.482Z,7.85
2018-01-02T22:50:45.196Z,7.75
2018-01-02T22:53:12.773Z,7.85
2018-01-02T22:55:40.519Z,7.72
2018-01-02T22:58:08.066Z,7.76
2018-01-02T23:00:37.494Z,7.72
2018-01-02T23:03:05.242Z,7.63
2018-01-02T23:05:33.634Z,7.69
2018-01-02T23:08:01.385Z,7.61
2018-01-02T23:10:28.981Z,7.79
2018-01-02T23:12:56.606Z,7.68
2018-01-02T23:15:24.186Z,7.83
2018-01-02T23:17:51.763Z,7.68
2018-01-02T23:20:19.315Z,7.42
2018-01-02T23:22:54.112Z,7.71
2018-01-02T23:25:21.897Z,7.52
2018-01-02T23:27:49.467Z,7.60
2018-01-02T23:30:17.034Z,7.51
2018-01-02T23:32:44.657Z,7.72
2018-01-02T23:35:12.258Z,7.32
2018-01-02T23:37:39.823Z,7.39
2018-01-02T23:40:07.437Z,7.26
2018-01-02T23:42:34.995Z,7.41
2018-01-02T23:45:03.373Z,7.38
2018-01-02T23:47:31.240Z,7.56
2018-01-02T23:49:58.791Z,7.38
2018-01-02T23:52:26.460Z,7.63
2018-01-02T23:54:54.124Z,7.52
2018-01-02T23:57:21.785Z,7.46
2018-01-02T23:59:49.329Z,7.61
